Observation data for Fluvanna on 08/20/2019      Previous  Date       Current Mesonet Observations  Soil Data  Daily Summary Page  Observations in Plain Language
KFVS 200500Z 14012KT 30/15 A3005 RMK A01 T03000148  RH  041%=      5-min Rain = 0
KFVS 200505Z 14012KT 30/15 A3005 RMK A01 T03000148  RH  041%=      5-min Rain = 0
KFVS 200510Z 14012G17KT 30/15 A3005 RMK A01 T03010147  RH  041%=      5-min Rain = 0
KFVS 200515Z 15013G18KT 30/15 A3005 RMK A01 T03020147  RH  041%=      5-min Rain = 0
KFVS 200520Z 15013KT 30/15 A3004 RMK A01 T03020148  RH  041%=      5-min Rain = 0
KFVS 200525Z 15013G18KT 30/15 A3005 RMK A01 T03020148  RH  041%=      5-min Rain = 0
KFVS 200530Z 14013G18KT 30/15 A3005 RMK A01 T03020149  RH  041%=      5-min Rain = 0
KFVS 200535Z 15013G20KT 30/15 A3005 RMK A01 T03010149  RH  042%=      5-min Rain = 0
KFVS 200540Z 14012G17KT 30/15 A3005 RMK A01 T02990149  RH  042%=      5-min Rain = 0
KFVS 200545Z 14012G17KT 30/15 A3005 RMK A01 T02980149  RH  042%=      5-min Rain = 0
KFVS 200550Z 14013G18KT 30/15 A3005 RMK A01 T02980149  RH  042%=      5-min Rain = 0
KFVS 200555Z 14013KT 30/15 A3005 RMK A01 T02970149  RH  042%=      5-min Rain = 0
KFVS 200600Z 15012KT 30/15 A3005 RMK A01 T02960149  RH  043%=      5-min Rain = 0
KFVS 200605Z 14012KT 30/15 A3005 RMK A01 T02950149  RH  043%=      5-min Rain = 0
KFVS 200610Z 15012KT 29/15 A3005 RMK A01 T02940149  RH  043%=      5-min Rain = 0
KFVS 200615Z 14012KT 29/15 A3005 RMK A01 T02930149  RH  044%=      5-min Rain = 0
KFVS 200620Z 14013G19KT 29/15 A3005 RMK A01 T02930150  RH  044%=      5-min Rain = 0
KFVS 200625Z 14013G18KT 29/15 A3005 RMK A01 T02930150  RH  044%=      5-min Rain = 0
KFVS 200630Z 14013G19KT 29/15 A3005 RMK A01 T02910150  RH  044%=      5-min Rain = 0
KFVS 200635Z 14013KT 29/15 A3005 RMK A01 T02900150  RH  044%=      5-min Rain = 0
KFVS 200640Z 15013KT 29/15 A3005 RMK A01 T02890150  RH  045%=      5-min Rain = 0
KFVS 200645Z 15012KT 29/15 A3005 RMK A01 T02880151  RH  045%=      5-min Rain = 0
KFVS 200650Z 15012KT 29/15 A3005 RMK A01 T02870151  RH  045%=      5-min Rain = 0
KFVS 200655Z 15012G17KT 29/15 A3005 RMK A01 T02860151  RH  046%=      5-min Rain = 0
KFVS 200700Z 15012G18KT 29/15 A3005 RMK A01 T02850151  RH  046%=      5-min Rain = 0
KFVS 200705Z 15013KT 29/15 A3005 RMK A01 T02860151  RH  046%=      5-min Rain = 0
KFVS 200710Z 15012KT 29/15 A3005 RMK A01 T02850151  RH  046%=      5-min Rain = 0
KFVS 200715Z 15012G17KT 28/15 A3005 RMK A01 T02840151  RH  046%=      5-min Rain = 0
KFVS 200720Z 15013G18KT 28/15 A3005 RMK A01 T02840151  RH  046%=      5-min Rain = 0
KFVS 200725Z 16011KT 28/15 A3006 RMK A01 T02830151  RH  047%=      5-min Rain = 0
KFVS 200730Z 16011G16KT 28/15 A3006 RMK A01 T02810152  RH  047%=      5-min Rain = 0
KFVS 200735Z 16012KT 28/15 A3006 RMK A01 T02810152  RH  047%=      5-min Rain = 0
KFVS 200740Z 16012KT 28/15 A3006 RMK A01 T02820152  RH  047%=      5-min Rain = 0
KFVS 200745Z 17011KT 28/15 A3006 RMK A01 T02800152  RH  048%=      5-min Rain = 0
KFVS 200750Z 16011KT 28/15 A3006 RMK A01 T02780152  RH  048%=      5-min Rain = 0
KFVS 200755Z 16012KT 28/15 A3006 RMK A01 T02780152  RH  048%=      5-min Rain = 0
KFVS 200800Z 17011KT 28/15 A3006 RMK A01 T02770152  RH  049%=      5-min Rain = 0
KFVS 200805Z 17010G15KT 28/15 A3006 RMK A01 T02750152  RH  049%=      5-min Rain = 0
KFVS 200810Z 17010KT 28/15 A3006 RMK A01 T02750152  RH  049%=      5-min Rain = 0
KFVS 200815Z 17011KT 27/15 A3006 RMK A01 T02740152  RH  049%=      5-min Rain = 0
KFVS 200820Z 17011KT 27/15 A3006 RMK A01 T02740152  RH  049%=      5-min Rain = 0
KFVS 200825Z 17011KT 27/15 A3006 RMK A01 T02740152  RH  049%=      5-min Rain = 0
KFVS 200830Z 17012KT 27/15 A3006 RMK A01 T02730152  RH  050%=      5-min Rain = 0
KFVS 200835Z 17012KT 27/15 A3006 RMK A01 T02730152  RH  050%=      5-min Rain = 0
KFVS 200840Z 17012KT 27/15 A3006 RMK A01 T02730152  RH  050%=      5-min Rain = 0
KFVS 200845Z 17011KT 27/15 A3006 RMK A01 T02720152  RH  050%=      5-min Rain = 0
KFVS 200850Z 17012KT 27/15 A3006 RMK A01 T02720152  RH  050%=      5-min Rain = 0
KFVS 200855Z 17011KT 27/15 A3006 RMK A01 T02710152  RH  050%=      5-min Rain = 0
KFVS 200900Z 17011KT 27/15 A3006 RMK A01 T02700152  RH  051%=      5-min Rain = 0
KFVS 200905Z 17012G17KT 27/15 A3006 RMK A01 T02710152  RH  051%=      5-min Rain = 0
KFVS 200910Z 17012KT 27/15 A3006 RMK A01 T02700152  RH  051%=      5-min Rain = 0
KFVS 200915Z 17011G16KT 27/15 A3006 RMK A01 T02680152  RH  051%=      5-min Rain = 0
KFVS 200920Z 17012KT 27/15 A3006 RMK A01 T02680153  RH  052%=      5-min Rain = 0
KFVS 200925Z 18011KT 27/15 A3006 RMK A01 T02650153  RH  052%=      5-min Rain = 0
KFVS 200930Z 18010KT 26/15 A3006 RMK A01 T02630152  RH  053%=      5-min Rain = 0
KFVS 200935Z 18010KT 26/15 A3006 RMK A01 T02620152  RH  053%=      5-min Rain = 0
KFVS 200940Z 18011KT 26/15 A3006 RMK A01 T02610152  RH  054%=      5-min Rain = 0
KFVS 200945Z 18010KT 26/15 A3006 RMK A01 T02600153  RH  054%=      5-min Rain = 0
KFVS 200950Z 18010KT 26/15 A3006 RMK A01 T02600152  RH  054%=      5-min Rain = 0
KFVS 200955Z 18009KT 26/15 A3006 RMK A01 T02590152  RH  054%=      5-min Rain = 0
KFVS 201000Z 18010KT 26/15 A3006 RMK A01 T02580152  RH  054%=      5-min Rain = 0
KFVS 201005Z 18009KT 26/15 A3006 RMK A01 T02600152  RH  054%=      5-min Rain = 0
KFVS 201010Z 18009KT 26/15 A3006 RMK A01 T02590152  RH  054%=      5-min Rain = 0
KFVS 201015Z 18009KT 26/15 A3006 RMK A01 T02590152  RH  054%=      5-min Rain = 0
KFVS 201020Z 18009KT 26/15 A3006 RMK A01 T02590152  RH  054%=      5-min Rain = 0
KFVS 201025Z 18009KT 26/15 A3006 RMK A01 T02580152  RH  054%=      5-min Rain = 0
KFVS 201030Z 18009KT 26/15 A3006 RMK A01 T02590152  RH  054%=      5-min Rain = 0
KFVS 201035Z 18009KT 26/15 A3006 RMK A01 T02580152  RH  054%=      5-min Rain = 0
KFVS 201040Z 18009KT 26/15 A3006 RMK A01 T02580152  RH  054%=      5-min Rain = 0
KFVS 201045Z 18008KT 26/15 A3006 RMK A01 T02570152  RH  055%=      5-min Rain = 0
KFVS 201050Z 18008KT 26/15 A3007 RMK A01 T02560152  RH  055%=      5-min Rain = 0
KFVS 201055Z 18008KT 26/15 A3007 RMK A01 T02560152  RH  055%=      5-min Rain = 0
KFVS 201100Z 18008KT 26/15 A3007 RMK A01 T02550152  RH  055%=      5-min Rain = 0
KFVS 201105Z 18008KT 25/15 A3007 RMK A01 T02540152  RH  056%=      5-min Rain = 0
KFVS 201110Z 18008KT 25/15 A3007 RMK A01 T02530152  RH  056%=      5-min Rain = 0
KFVS 201115Z 18008KT 25/15 A3007 RMK A01 T02530153  RH  056%=      5-min Rain = 0
KFVS 201120Z 18008KT 25/15 A3008 RMK A01 T02530153  RH  056%=      5-min Rain = 0
KFVS 201125Z 18008KT 25/15 A3008 RMK A01 T02530153  RH  057%=      5-min Rain = 0
KFVS 201130Z 18008KT 25/15 A3008 RMK A01 T02510153  RH  057%=      5-min Rain = 0
KFVS 201135Z 18009KT 25/15 A3008 RMK A01 T02500153  RH  057%=      5-min Rain = 0
KFVS 201140Z 18010KT 25/15 A3008 RMK A01 T02510154  RH  057%=      5-min Rain = 0
KFVS 201145Z 18009KT 25/15 A3008 RMK A01 T02510154  RH  057%=      5-min Rain = 0
KFVS 201150Z 18009KT 25/15 A3008 RMK A01 T02500154  RH  058%=      5-min Rain = 0
KFVS 201155Z 18010KT 25/15 A3008 RMK A01 T02510154  RH  058%=      5-min Rain = 0
KFVS 201200Z 18009KT 25/15 A3008 RMK A01 T02510154  RH  057%=      5-min Rain = 0
KFVS 201205Z 18009KT 25/15 A3008 RMK A01 T02510154  RH  058%=      5-min Rain = 0
KFVS 201210Z 18008KT 25/16 A3008 RMK A01 T02520155  RH  057%=      5-min Rain = 0
KFVS 201215Z 19009KT 25/16 A3009 RMK A01 T02520155  RH  058%=      5-min Rain = 0
KFVS 201220Z 18008KT 25/16 A3009 RMK A01 T02510155  RH  058%=      5-min Rain = 0
KFVS 201225Z 18008KT 25/16 A3009 RMK A01 T02500155  RH  058%=      5-min Rain = 0
KFVS 201230Z 18008KT 25/16 A3009 RMK A01 T02500156  RH  058%=      5-min Rain = 0
KFVS 201235Z 19007KT 25/16 A3009 RMK A01 T02500156  RH  059%=      5-min Rain = 0
KFVS 201240Z 19008KT 25/16 A3009 RMK A01 T02500156  RH  059%=      5-min Rain = 0
KFVS 201245Z 19008KT 25/16 A3009 RMK A01 T02500157  RH  059%=      5-min Rain = 0
KFVS 201250Z 19008KT 25/16 A3009 RMK A01 T02510157  RH  059%=      5-min Rain = 0
KFVS 201255Z 18007KT 25/16 A3009 RMK A01 T02530158  RH  059%=      5-min Rain = 0
KFVS 201300Z 18007KT 25/16 A3009 RMK A01 T02530159  RH  058%=      5-min Rain = 0
KFVS 201305Z 18007KT 26/16 A3009 RMK A01 T02550160  RH  058%=      5-min Rain = 0
KFVS 201310Z 17007KT 26/16 A3009 RMK A01 T02560160  RH  058%=      5-min Rain = 0
KFVS 201315Z 17008KT 26/16 A301 RMK A01 T02580161  RH  058%=      5-min Rain = 0
KFVS 201320Z 17008KT 26/16 A301 RMK A01 T02590162  RH  058%=      5-min Rain = 0
KFVS 201325Z 18007KT 26/16 A301 RMK A01 T02610163  RH  057%=      5-min Rain = 0
KFVS 201330Z 18007KT 26/16 A301 RMK A01 T02620164  RH  058%=      5-min Rain = 0
KFVS 201335Z 19008KT 26/17 A301 RMK A01 T02640165  RH  057%=      5-min Rain = 0
KFVS 201340Z 19008KT 27/17 A301 RMK A01 T02660166  RH  057%=      5-min Rain = 0
KFVS 201345Z 18007KT 27/17 A301 RMK A01 T02660166  RH  057%=      5-min Rain = 0
KFVS 201350Z 19007KT 27/17 A301 RMK A01 T02670167  RH  057%=      5-min Rain = 0
KFVS 201355Z 19008KT 27/17 A301 RMK A01 T02670167  RH  057%=      5-min Rain = 0
KFVS 201400Z 18007KT 27/17 A301 RMK A01 T02680168  RH  057%=      5-min Rain = 0
KFVS 201405Z 19007KT 27/17 A301 RMK A01 T02700170  RH  057%=      5-min Rain = 0
KFVS 201410Z 20008KT 27/17 A301 RMK A01 T02700172  RH  058%=      5-min Rain = 0
KFVS 201415Z 20009KT 27/18 A301 RMK A01 T02710175  RH  059%=      5-min Rain = 0
KFVS 201420Z 19009KT 27/18 A301 RMK A01 T02730176  RH  058%=      5-min Rain = 0
KFVS 201425Z 20008G13KT 28/18 A301 RMK A01 T02750177  RH  058%=      5-min Rain = 0
KFVS 201430Z 20009KT 28/18 A301 RMK A01 T02760177  RH  058%=      5-min Rain = 0
KFVS 201435Z 20008KT 28/18 A301 RMK A01 T02760178  RH  058%=      5-min Rain = 0
KFVS 201440Z 21009G14KT 28/18 A301 RMK A01 T02810179  RH  057%=      5-min Rain = 0
KFVS 201445Z 20010KT 28/18 A301 RMK A01 T02820180  RH  057%=      5-min Rain = 0
KFVS 201450Z 22011KT 29/18 A301 RMK A01 T02850181  RH  056%=      5-min Rain = 0
KFVS 201455Z 21010KT 29/18 A301 RMK A01 T02870181  RH  056%=      5-min Rain = 0
KFVS 201500Z 21010G15KT 29/18 A301 RMK A01 T02890180  RH  055%=      5-min Rain = 0
KFVS 201505Z 22010KT 29/18 A301 RMK A01 T02880179  RH  055%=      5-min Rain = 0
KFVS 201510Z 23011KT 29/18 A301 RMK A01 T02910180  RH  054%=      5-min Rain = 0
KFVS 201515Z 23010KT 29/18 A301 RMK A01 T02900180  RH  054%=      5-min Rain = 0
KFVS 201520Z 20009KT 29/18 A301 RMK A01 T02920179  RH  053%=      5-min Rain = 0
KFVS 201525Z 21009KT 29/18 A301 RMK A01 T02930180  RH  053%=      5-min Rain = 0
KFVS 201530Z 20009KT 30/18 A301 RMK A01 T02970182  RH  053%=      5-min Rain = 0
KFVS 201535Z 18008KT 30/18 A3011 RMK A01 T02990182  RH  052%=      5-min Rain = 0
KFVS 201540Z 18006KT 30/18 A3011 RMK A01 T03010184  RH  052%=      5-min Rain = 0
KFVS 201545Z 17007KT 31/19 A3011 RMK A01 T03050185  RH  052%=      5-min Rain = 0
KFVS 201550Z 18006G12KT 31/19 A3011 RMK A01 T03050185  RH  051%=      5-min Rain = 0
KFVS 201555Z 22007KT 31/19 A3011 RMK A01 T03080185  RH  051%=      5-min Rain = 0
KFVS 201600Z 17006G11KT 31/19 A3011 RMK A01 T03080186  RH  051%=      5-min Rain = 0
KFVS 201605Z 17008KT 31/19 A3011 RMK A01 T03110185  RH  050%=      5-min Rain = 0
KFVS 201610Z 21006KT 31/18 A3011 RMK A01 T03110183  RH  049%=      5-min Rain = 0
KFVS 201615Z 18007G13KT 31/19 A3011 RMK A01 T03130185  RH  049%=      5-min Rain = 0
KFVS 201620Z 18007G13KT 31/18 A3011 RMK A01 T03140184  RH  049%=      5-min Rain = 0
KFVS 201625Z 18007G13KT 32/18 A3011 RMK A01 T03170184  RH  048%=      5-min Rain = 0
KFVS 201630Z 17008KT 32/18 A3011 RMK A01 T03200183  RH  047%=      5-min Rain = 0
KFVS 201635Z 16008G13KT 32/18 A3011 RMK A01 T03180182  RH  047%=      5-min Rain = 0
KFVS 201640Z 18008KT 32/18 A3011 RMK A01 T03210181  RH  046%=      5-min Rain = 0
KFVS 201645Z 16005G11KT 32/18 A3011 RMK A01 T03220180  RH  045%=      5-min Rain = 0
KFVS 201650Z 14008G14KT 33/18 A3011 RMK A01 T03260179  RH  044%=      5-min Rain = 0
KFVS 201655Z 15008G13KT 33/18 A3011 RMK A01 T03250176  RH  043%=      5-min Rain = 0
KFVS 201700Z 15007G13KT 33/18 A3011 RMK A01 T03250177  RH  044%=      5-min Rain = 0
KFVS 201705Z 15006G13KT 33/17 A3011 RMK A01 T03250174  RH  042%=      5-min Rain = 0
KFVS 201710Z 16007G12KT 33/17 A3011 RMK A01 T03290169  RH  040%=      5-min Rain = 0
KFVS 201715Z 15009KT 33/18 A3011 RMK A01 T03300176  RH  042%=      5-min Rain = 0
KFVS 201720Z 16005G10KT 33/18 A3011 RMK A01 T03290176  RH  042%=      5-min Rain = 0
KFVS 201725Z 15011G16KT 34/17 A3011 RMK A01 T03360172  RH  040%=      5-min Rain = 0
KFVS 201730Z 14007G12KT 33/17 A3011 RMK A01 T03320172  RH  040%=      5-min Rain = 0
KFVS 201735Z 14006KT 33/18 A3011 RMK A01 T03300175  RH  042%=      5-min Rain = 0
KFVS 201740Z 18009G16KT 34/18 A301 RMK A01 T03380175  RH  040%=      5-min Rain = 0
KFVS 201745Z 15009KT 34/16 A3011 RMK A01 T03370164  RH  037%=      5-min Rain = 0
KFVS 201750Z 16007G12KT 34/17 A301 RMK A01 T03360169  RH  039%=      5-min Rain = 0
KFVS 201755Z 17008G14KT 34/17 A301 RMK A01 T03370172  RH  039%=      5-min Rain = 0
KFVS 201800Z 16006G12KT 34/17 A301 RMK A01 T03350171  RH  040%=      5-min Rain = 0
KFVS 201805Z 17008KT 34/17 A301 RMK A01 T03370169  RH  039%=      5-min Rain = 0
KFVS 201810Z 15011G16KT 34/17 A301 RMK A01 T03400165  RH  037%=      5-min Rain = 0
KFVS 201815Z 15009G14KT 34/16 A301 RMK A01 T03400160  RH  036%=      5-min Rain = 0
KFVS 201820Z 16005G10KT 34/16 A301 RMK A01 T03400156  RH  035%=      5-min Rain = 0
KFVS 201825Z 12005G11KT 34/16 A301 RMK A01 T03420159  RH  035%=      5-min Rain = 0
KFVS 201830Z 19009G14KT 35/16 A301 RMK A01 T03450164  RH  036%=      5-min Rain = 0
KFVS 201835Z 20005KT 34/16 A301 RMK A01 T03440164  RH  036%=      5-min Rain = 0
KFVS 201840Z 17008G15KT 34/17 A301 RMK A01 T03440165  RH  036%=      5-min Rain = 0
KFVS 201845Z 19007G13KT 34/16 A3009 RMK A01 T03440160  RH  035%=      5-min Rain = 0
KFVS 201850Z 19005G10KT 35/15 A3009 RMK A01 T03450152  RH  033%=      5-min Rain = 0
KFVS 201855Z 13004G10KT 35/15 A3009 RMK A01 T03450152  RH  033%=      5-min Rain = 0
KFVS 201900Z 16007G14KT 35/16 A3009 RMK A01 T03480163  RH  035%=      5-min Rain = 0
KFVS 201905Z 18007KT 35/16 A3009 RMK A01 T03500161  RH  034%=      5-min Rain = 0
KFVS 201910Z 14007KT 35/16 A3009 RMK A01 T03500157  RH  033%=      5-min Rain = 0
KFVS 201915Z 11007G12KT 35/15 A3009 RMK A01 T03530153  RH  032%=      5-min Rain = 0
KFVS 201920Z 13005G11KT 35/15 A3008 RMK A01 T03490153  RH  033%=      5-min Rain = 0
KFVS 201925Z 11006KT 35/15 A3008 RMK A01 T03500148  RH  031%=      5-min Rain = 0
KFVS 201930Z 09006KT 35/15 A3008 RMK A01 T03530152  RH  032%=      5-min Rain = 0
KFVS 201935Z 13007G12KT 36/16 A3008 RMK A01 T03550157  RH  032%=      5-min Rain = 0
KFVS 201940Z 16008G13KT 35/16 A3008 RMK A01 T03540157  RH  032%=      5-min Rain = 0
KFVS 201945Z 15009G14KT 36/15 A3007 RMK A01 T03590153  RH  031%=      5-min Rain = 0
KFVS 201950Z 16008G13KT 36/15 A3007 RMK A01 T03570148  RH  030%=      5-min Rain = 0
KFVS 201955Z 15008G16KT 36/15 A3007 RMK A01 T03580148  RH  030%=      5-min Rain = 0
KFVS 202000Z 15009G15KT 36/15 A3007 RMK A01 T03600145  RH  029%=      5-min Rain = 0
KFVS 202005Z 19007KT 36/15 A3007 RMK A01 T03550145  RH  030%=      5-min Rain = 0
KFVS 202010Z 16006G15KT 35/15 A3006 RMK A01 T03540145  RH  030%=      5-min Rain = 0
KFVS 202015Z 15009G16KT 36/15 A3006 RMK A01 T03600145  RH  029%=      5-min Rain = 0
KFVS 202020Z 11007KT 36/14 A3006 RMK A01 T03630140  RH  028%=      5-min Rain = 0
KFVS 202025Z 14009G14KT 36/14 A3006 RMK A01 T03610135  RH  027%=      5-min Rain = 0
KFVS 202030Z 16006G12KT 36/13 A3006 RMK A01 T03580130  RH  026%=      5-min Rain = 0
KFVS 202035Z 16008G13KT 36/13 A3006 RMK A01 T03600133  RH  027%=      5-min Rain = 0
KFVS 202040Z 15006G13KT 36/14 A3006 RMK A01 T03590139  RH  028%=      5-min Rain = 0
KFVS 202045Z 14009G15KT 36/14 A3005 RMK A01 T03640137  RH  027%=      5-min Rain = 0
KFVS 202050Z 14008G13KT 36/13 A3005 RMK A01 T03620132  RH  026%=      5-min Rain = 0
KFVS 202055Z 14009KT 36/13 A3005 RMK A01 T03640128  RH  025%=      5-min Rain = 0
KFVS 202100Z 12008KT 36/13 A3005 RMK A01 T03620129  RH  026%=      5-min Rain = 0
KFVS 202105Z 13006G13KT 36/14 A3005 RMK A01 T03610138  RH  028%=      5-min Rain = 0
KFVS 202110Z 12006G13KT 36/14 A3004 RMK A01 T03590137  RH  028%=      5-min Rain = 0
KFVS 202115Z 10010KT 37/14 A3004 RMK A01 T03650136  RH  027%=      5-min Rain = 0
KFVS 202120Z 11008G14KT 36/13 A3004 RMK A01 T03640132  RH  026%=      5-min Rain = 0
KFVS 202125Z 16010G15KT 37/13 A3004 RMK A01 T03660132  RH  026%=      5-min Rain = 0
KFVS 202130Z 13006KT 37/13 A3003 RMK A01 T03660127  RH  025%=      5-min Rain = 0
KFVS 202135Z 14006G11KT 36/13 A3003 RMK A01 T03630132  RH  026%=      5-min Rain = 0
KFVS 202140Z 11008G14KT 37/13 A3003 RMK A01 T03670127  RH  025%=      5-min Rain = 0
KFVS 202145Z 14009G14KT 37/13 A3003 RMK A01 T03710133  RH  025%=      5-min Rain = 0
KFVS 202150Z 15010G16KT 37/13 A3003 RMK A01 T03670131  RH  025%=      5-min Rain = 0
KFVS 202155Z 17010G15KT 37/13 A3003 RMK A01 T03650131  RH  026%=      5-min Rain = 0
KFVS 202200Z 13010G16KT 37/13 A3003 RMK A01 T03680129  RH  025%=      5-min Rain = 0
KFVS 202205Z 13010G15KT 37/13 A3003 RMK A01 T03660126  RH  025%=      5-min Rain = 0
KFVS 202210Z 17011G17KT 36/13 A3002 RMK A01 T03640127  RH  025%=      5-min Rain = 0
KFVS 202215Z 19010KT 36/13 A3002 RMK A01 T03630126  RH  025%=      5-min Rain = 0
KFVS 202220Z 17009G15KT 37/13 A3002 RMK A01 T03660125  RH  025%=      5-min Rain = 0
KFVS 202225Z 16010G15KT 37/12 A3002 RMK A01 T03680120  RH  023%=      5-min Rain = 0
KFVS 202230Z 14007KT 37/12 A3002 RMK A01 T03670120  RH  024%=      5-min Rain = 0
KFVS 202235Z 14010G17KT 37/12 A3002 RMK A01 T03680123  RH  024%=      5-min Rain = 0
KFVS 202240Z 13012KT 37/12 A3002 RMK A01 T03670123  RH  024%=      5-min Rain = 0
KFVS 202245Z 12010KT 36/12 A3002 RMK A01 T03560117  RH  025%=      5-min Rain = 0
KFVS 202250Z 13008G13KT 35/12 A3002 RMK A01 T03540119  RH  025%=      5-min Rain = 0
KFVS 202255Z 15009G14KT 36/12 A3002 RMK A01 T03610124  RH  025%=      5-min Rain = 0
KFVS 202300Z 16009KT 36/12 A3002 RMK A01 T03610124  RH  025%=      5-min Rain = 0
KFVS 202305Z 16007G13KT 36/13 A3002 RMK A01 T03610126  RH  025%=      5-min Rain = 0
KFVS 202310Z 15007G12KT 36/12 A3002 RMK A01 T03620123  RH  025%=      5-min Rain = 0
KFVS 202315Z 14011G16KT 36/13 A3002 RMK A01 T03630126  RH  025%=      5-min Rain = 0
KFVS 202320Z 15009KT 36/13 A3002 RMK A01 T03610132  RH  026%=      5-min Rain = 0
KFVS 202325Z 14009G14KT 36/13 A3002 RMK A01 T03580131  RH  027%=      5-min Rain = 0
KFVS 202330Z 13010KT 35/13 A3002 RMK A01 T03520128  RH  027%=      5-min Rain = 0
KFVS 202335Z 14008KT 35/13 A3002 RMK A01 T03500132  RH  028%=      5-min Rain = 0
KFVS 202340Z 14009KT 35/13 A3002 RMK A01 T03500129  RH  028%=      5-min Rain = 0
KFVS 202345Z 15009G14KT 35/13 A3002 RMK A01 T03540133  RH  028%=      5-min Rain = 0
KFVS 202350Z 14008KT 35/13 A3002 RMK A01 T03540129  RH  027%=      5-min Rain = 0
KFVS 202355Z 13011KT 36/13 A3002 RMK A01 T03560128  RH  026%=      5-min Rain = 0
KFVS 210000Z 13010G15KT 35/13 A3002 RMK A01 T03540127  RH  027%=      5-min Rain = 0
KFVS 210005Z 14012KT 35/13 A3002 RMK A01 T03530130  RH  027%=      5-min Rain = 0
KFVS 210010Z 14013G19KT 35/13 A3002 RMK A01 T03510130  RH  027%=      5-min Rain = 0
KFVS 210015Z 13012KT 35/13 A3002 RMK A01 T03500128  RH  027%=      5-min Rain = 0
KFVS 210020Z 13008KT 35/13 A3002 RMK A01 T03490129  RH  028%=      5-min Rain = 0
KFVS 210025Z 14010KT 35/13 A3002 RMK A01 T03490128  RH  027%=      5-min Rain = 0
KFVS 210030Z 12010KT 35/13 A3002 RMK A01 T03470125  RH  027%=      5-min Rain = 0
KFVS 210035Z 12010KT 35/13 A3002 RMK A01 T03450125  RH  027%=      5-min Rain = 0
KFVS 210040Z 13011KT 34/12 A3002 RMK A01 T03440122  RH  027%=      5-min Rain = 0
KFVS 210045Z 13010KT 34/12 A3002 RMK A01 T03430122  RH  027%=      5-min Rain = 0
KFVS 210050Z 13009KT 34/13 A3002 RMK A01 T03400125  RH  028%=      5-min Rain = 0
KFVS 210055Z 14008KT 34/13 A3002 RMK A01 T03390127  RH  029%=      5-min Rain = 0
KFVS 210100Z 14008KT 34/13 A3002 RMK A01 T03360126  RH  029%=      5-min Rain = 0
KFVS 210105Z 14009KT 34/12 A3003 RMK A01 T03350124  RH  029%=      5-min Rain = 0
KFVS 210110Z 13009KT 33/13 A3003 RMK A01 T03320125  RH  029%=      5-min Rain = 0
KFVS 210115Z 14008KT 33/12 A3003 RMK A01 T03300124  RH  030%=      5-min Rain = 0
KFVS 210120Z 14007KT 33/12 A3003 RMK A01 T03280123  RH  030%=      5-min Rain = 0
KFVS 210125Z 14008KT 33/12 A3003 RMK A01 T03260123  RH  030%=      5-min Rain = 0
KFVS 210130Z 14008KT 33/12 A3003 RMK A01 T03260124  RH  030%=      5-min Rain = 0
KFVS 210135Z 14008KT 32/12 A3003 RMK A01 T03240124  RH  031%=      5-min Rain = 0
KFVS 210140Z 14007KT 32/12 A3004 RMK A01 T03210124  RH  031%=      5-min Rain = 0
KFVS 210145Z 13007KT 32/13 A3004 RMK A01 T03180125  RH  032%=      5-min Rain = 0
KFVS 210150Z 13006KT 32/13 A3004 RMK A01 T03160126  RH  033%=      5-min Rain = 0
KFVS 210155Z 13007KT 31/13 A3004 RMK A01 T03140127  RH  033%=      5-min Rain = 0
KFVS 210200Z 13006KT 31/13 A3004 RMK A01 T03120128  RH  034%=      5-min Rain = 0
KFVS 210205Z 13006KT 31/13 A3004 RMK A01 T03100129  RH  034%=      5-min Rain = 0
KFVS 210210Z 13007KT 31/13 A3004 RMK A01 T03090130  RH  035%=      5-min Rain = 0
KFVS 210215Z 13006KT 31/13 A3004 RMK A01 T03070130  RH  035%=      5-min Rain = 0
KFVS 210220Z 13006KT 30/13 A3004 RMK A01 T03040131  RH  036%=      5-min Rain = 0
KFVS 210225Z 14007KT 30/13 A3004 RMK A01 T03040130  RH  036%=      5-min Rain = 0
KFVS 210230Z 13006KT 30/13 A3004 RMK A01 T03040130  RH  036%=      5-min Rain = 0
KFVS 210235Z 14006KT 30/13 A3005 RMK A01 T03010129  RH  036%=      5-min Rain = 0
KFVS 210240Z 14006KT 30/13 A3005 RMK A01 T02990129  RH  037%=      5-min Rain = 0
KFVS 210245Z 14007KT 30/13 A3005 RMK A01 T02970129  RH  037%=      5-min Rain = 0
KFVS 210250Z 14007KT 30/13 A3006 RMK A01 T03000129  RH  036%=      5-min Rain = 0
KFVS 210255Z 14008KT 31/13 A3006 RMK A01 T03050129  RH  035%=      5-min Rain = 0
KFVS 210300Z 14008KT 31/13 A3006 RMK A01 T03070129  RH  035%=      5-min Rain = 0
KFVS 210305Z 14009KT 31/13 A3006 RMK A01 T03060130  RH  035%=      5-min Rain = 0
KFVS 210310Z 14009KT 31/13 A3006 RMK A01 T03070130  RH  035%=      5-min Rain = 0
KFVS 210315Z 14008KT 31/13 A3006 RMK A01 T03050130  RH  036%=      5-min Rain = 0
KFVS 210320Z 15007KT 30/13 A3006 RMK A01 T03020130  RH  036%=      5-min Rain = 0
KFVS 210325Z 15007KT 30/13 A3006 RMK A01 T02990130  RH  037%=      5-min Rain = 0
KFVS 210330Z 15007KT 30/13 A3006 RMK A01 T02970130  RH  037%=      5-min Rain = 0
KFVS 210335Z 16007KT 30/13 A3006 RMK A01 T02960130  RH  037%=      5-min Rain = 0
KFVS 210340Z 15007KT 29/13 A3006 RMK A01 T02940129  RH  038%=      5-min Rain = 0
KFVS 210345Z 15007KT 29/13 A3006 RMK A01 T02930130  RH  038%=      5-min Rain = 0
KFVS 210350Z 15008KT 29/13 A3006 RMK A01 T02930131  RH  038%=      5-min Rain = 0
KFVS 210355Z 15007KT 29/13 A3007 RMK A01 T02920131  RH  039%=      5-min Rain = 0
KFVS 210400Z 15007KT 29/13 A3007 RMK A01 T02900131  RH  039%=      5-min Rain = 0
KFVS 210405Z 15007KT 29/13 A3007 RMK A01 T02880132  RH  040%=      5-min Rain = 0
KFVS 210410Z 15008KT 29/13 A3007 RMK A01 T02880133  RH  040%=      5-min Rain = 0
KFVS 210415Z 15008KT 29/13 A3007 RMK A01 T02870134  RH  041%=      5-min Rain = 0
KFVS 210420Z 15008KT 29/14 A3007 RMK A01 T02880135  RH  040%=      5-min Rain = 0
KFVS 210425Z 15007KT 29/14 A3007 RMK A01 T02890135  RH  040%=      5-min Rain = 0
KFVS 210430Z 15007KT 29/14 A3007 RMK A01 T02880135  RH  041%=      5-min Rain = 0
KFVS 210435Z 15008KT 29/14 A3007 RMK A01 T02880135  RH  041%=      5-min Rain = 0
KFVS 210440Z 15007KT 29/14 A3007 RMK A01 T02880135  RH  041%=      5-min Rain = 0
KFVS 210445Z 14008KT 29/14 A3007 RMK A01 T02890135  RH  040%=      5-min Rain = 0
KFVS 210450Z 14008KT 29/14 A3007 RMK A01 T02900135  RH  040%=      5-min Rain = 0
KFVS 210455Z 14008KT 29/14 A3007 RMK A01 T02910135  RH  040%=      5-min Rain = 0

Page generated in 0.0151 seconds.